createdAt,value
2018-08-21T00:01:23.813Z,7.03
2018-08-21T00:03:52.874Z,6.70
2018-08-21T00:06:21.335Z,7.20
2018-08-21T00:08:49.454Z,10.20
2018-08-21T00:11:29.045Z,7.70
2018-08-21T00:13:57.178Z,9.10
2018-08-21T00:16:26.649Z,7.50
2018-08-21T00:18:56.181Z,7.93
2018-08-21T00:21:24.818Z,8.33
2018-08-21T00:24:08.349Z,7.60
2018-08-21T00:26:37.053Z,6.97
2018-08-21T00:29:05.602Z,7.97
2018-08-21T00:31:39.574Z,7.80
2018-08-21T00:34:07.681Z,7.70
2018-08-21T00:36:35.802Z,7.87
2018-08-21T00:41:48.757Z,8.37
2018-08-21T00:44:17.122Z,7.63
2018-08-21T00:46:45.249Z,9.40
2018-08-21T00:49:13.970Z,7.00
2018-08-21T00:51:42.605Z,10.40
2018-08-21T00:54:11.174Z,7.90
2018-08-21T00:56:39.483Z,8.27
2018-08-21T00:59:07.658Z,7.63
2018-08-21T01:01:36.422Z,8.50
2018-08-21T01:04:04.874Z,11.57
2018-08-21T01:06:33.815Z,11.90
2018-08-21T01:09:03.218Z,9.83
2018-08-21T01:11:31.354Z,9.27
2018-08-21T01:13:59.462Z,9.70
2018-08-21T01:16:28.309Z,10.63
2018-08-21T01:18:56.470Z,9.20
2018-08-21T01:21:25.165Z,10.93
2018-08-21T01:23:53.294Z,8.70
2018-08-21T01:26:21.874Z,8.60
2018-08-21T01:28:50.325Z,9.07
2018-08-21T01:31:18.810Z,10.67
2018-08-21T01:33:46.945Z,11.20
2018-08-21T01:36:15.458Z,10.00
2018-08-21T01:38:43.922Z,9.20
2018-08-21T01:41:12.361Z,9.40
2018-08-21T01:43:40.827Z,12.00
2018-08-21T01:46:09.794Z,9.60
2018-08-21T01:48:38.243Z,8.90
2018-08-21T01:51:06.623Z,9.30
2018-08-21T01:53:35.277Z,9.07
2018-08-21T01:56:03.744Z,10.50
2018-08-21T01:58:31.914Z,9.33
2018-08-21T02:01:00.159Z,9.40
2018-08-21T02:03:28.541Z,11.47
2018-08-21T02:05:56.649Z,11.43
2018-08-21T02:08:25.033Z,10.47
2018-08-21T02:10:53.549Z,14.17
2018-08-21T02:13:22.426Z,9.13
2018-08-21T02:15:51.353Z,9.57
2018-08-21T02:18:19.806Z,10.13
2018-08-21T02:20:48.267Z,10.33
2018-08-21T02:23:16.390Z,8.80
2018-08-21T02:25:44.558Z,8.47
2018-08-21T02:28:13.006Z,9.43
2018-08-21T02:30:41.179Z,12.90
2018-08-21T02:33:09.742Z,11.93
2018-08-21T02:35:47.934Z,8.53
2018-08-21T02:38:16.276Z,8.63
2018-08-21T02:40:44.874Z,9.00
2018-08-21T02:43:15.470Z,9.70
2018-08-21T02:45:43.988Z,9.60
2018-08-21T02:48:12.436Z,9.00
2018-08-21T02:50:41.155Z,8.33
2018-08-21T02:53:09.281Z,8.60
2018-08-21T02:55:37.769Z,8.77
2018-08-21T02:58:06.550Z,12.17
2018-08-21T03:00:34.798Z,10.37
2018-08-21T03:03:03.513Z,10.27
2018-08-21T03:05:32.213Z,9.17
2018-08-21T03:08:00.902Z,9.27
2018-08-21T03:10:29.434Z,9.40
2018-08-21T03:12:58.107Z,10.60
2018-08-21T03:15:26.584Z,8.37
2018-08-21T03:17:55.238Z,7.57
2018-08-21T03:20:23.371Z,8.77
2018-08-21T03:22:51.511Z,7.93
2018-08-21T03:25:20.158Z,7.50
2018-08-21T03:27:48.653Z,8.13
2018-08-21T03:30:16.783Z,7.57
2018-08-21T03:32:44.907Z,9.77
2018-08-21T03:35:13.364Z,8.73
2018-08-21T03:37:42.126Z,9.93
2018-08-21T03:40:10.673Z,8.57
2018-08-21T03:42:38.992Z,9.50
2018-08-21T03:45:07.377Z,8.30
2018-08-21T03:47:43.071Z,9.53
2018-08-21T03:50:12.149Z,9.37
2018-08-21T03:52:40.826Z,8.73
2018-08-21T03:55:10.309Z,8.70
2018-08-21T03:57:39.237Z,8.87
2018-08-21T04:00:14.558Z,8.33
2018-08-21T04:02:42.997Z,10.47
2018-08-21T04:05:11.479Z,10.40
2018-08-21T04:07:39.734Z,11.83
2018-08-21T04:10:08.163Z,11.00
2018-08-21T04:12:36.571Z,9.70
2018-08-21T04:15:05.054Z,8.40
2018-08-21T04:17:33.194Z,8.60
2018-08-21T04:20:02.195Z,9.10
2018-08-21T04:22:33.241Z,8.60
2018-08-21T04:25:02.007Z,10.33
2018-08-21T04:27:33.194Z,9.10
2018-08-21T04:32:37.227Z,7.73
2018-08-21T04:35:05.816Z,8.70
2018-08-21T04:37:34.317Z,7.53
2018-08-21T04:40:02.868Z,11.00
2018-08-21T04:42:33.277Z,11.23
2018-08-21T04:45:04.297Z,8.10
2018-08-21T04:47:36.178Z,8.60
2018-08-21T04:50:05.507Z,12.20
2018-08-21T04:52:34.469Z,9.40
2018-08-21T04:55:02.962Z,7.80
2018-08-21T04:57:31.454Z,7.97
2018-08-21T05:00:01.840Z,8.03
2018-08-21T05:02:41.937Z,7.47
2018-08-21T05:05:10.841Z,12.27
2018-08-21T05:10:08.756Z,16.83
2018-08-21T05:12:39.311Z,11.40
2018-08-21T05:15:07.942Z,7.03
2018-08-21T05:17:51.269Z,6.53
2018-08-21T05:20:20.155Z,8.40
2018-08-21T05:22:48.734Z,6.40
2018-08-21T05:25:17.487Z,6.23
2018-08-21T05:27:51.423Z,6.33
2018-08-21T05:30:20.426Z,6.03
2018-08-21T05:32:50.667Z,7.13
2018-08-21T05:35:27.326Z,6.50
2018-08-21T05:37:56.447Z,6.10
2018-08-21T05:40:24.814Z,6.63
2018-08-21T05:42:52.983Z,6.57
2018-08-21T05:45:21.489Z,8.10
2018-08-21T05:47:50.227Z,5.97
2018-08-21T05:50:19.137Z,7.33
2018-08-21T05:52:47.486Z,6.20
2018-08-21T05:55:15.996Z,6.73
2018-08-21T05:57:45.325Z,8.60
2018-08-21T06:01:32.236Z,4.97
2018-08-21T06:04:00.937Z,6.80
2018-08-21T06:06:29.894Z,6.47
2018-08-21T06:08:58.351Z,7.00
2018-08-21T06:11:26.755Z,7.43
2018-08-21T06:13:55.973Z,10.10
2018-08-21T06:16:24.794Z,7.42
2018-08-21T06:18:53.936Z,5.20
2018-08-21T06:21:22.310Z,8.23
2018-08-21T06:23:50.918Z,7.05
2018-08-21T06:26:19.949Z,6.92
2018-08-21T06:28:48.397Z,4.45
2018-08-21T06:31:16.878Z,9.07
2018-08-21T06:33:45.830Z,6.70
2018-08-21T06:36:14.467Z,5.80
2018-08-21T06:38:43.379Z,5.23
2018-08-21T06:41:11.544Z,5.73
2018-08-21T06:43:49.903Z,5.33
2018-08-21T06:46:18.425Z,6.27
2018-08-21T06:48:47.215Z,10.60
2018-08-21T06:51:16.688Z,5.70
2018-08-21T06:53:45.103Z,5.93
2018-08-21T06:56:13.898Z,7.40
2018-08-21T06:58:42.359Z,5.57
2018-08-21T07:01:11.202Z,5.27
2018-08-21T07:03:39.750Z,7.30
2018-08-21T07:06:07.913Z,5.27
2018-08-21T07:08:44.352Z,3.75
2018-08-21T07:11:18.648Z,3.97
2018-08-21T07:13:46.998Z,4.47
2018-08-21T07:16:16.258Z,6.70
2018-08-21T07:18:44.677Z,4.97
2018-08-21T07:21:12.809Z,4.20
2018-08-21T07:23:41.336Z,3.63
2018-08-21T07:26:10.126Z,8.40
2018-08-21T07:28:38.537Z,9.33
2018-08-21T07:31:07.002Z,4.40
2018-08-21T07:33:35.458Z,4.55
2018-08-21T07:36:03.948Z,5.50
2018-08-21T07:38:42.690Z,5.07
2018-08-21T07:41:09.940Z,5.17
2018-08-21T07:43:38.078Z,4.93
2018-08-21T07:46:10.878Z,3.92
2018-08-21T07:48:44.985Z,5.13
2018-08-21T07:51:13.763Z,6.73
2018-08-21T07:53:42.753Z,5.62
2018-08-21T07:56:12.870Z,6.00
2018-08-21T07:58:41.950Z,6.70
2018-08-21T08:01:10.340Z,4.50
2018-08-21T08:03:38.767Z,6.20
2018-08-21T08:06:07.743Z,6.27
2018-08-21T08:08:48.976Z,5.60
2018-08-21T08:11:17.658Z,6.33
2018-08-21T08:13:46.061Z,6.65
2018-08-21T08:16:15.082Z,6.45
2018-08-21T08:18:48.143Z,7.05
2018-08-21T08:21:22.355Z,8.80
2018-08-21T08:23:51.779Z,10.38
2018-08-21T08:26:20.518Z,8.23
2018-08-21T08:28:56.073Z,6.90
2018-08-21T08:31:25.142Z,6.27
2018-08-21T08:33:53.610Z,6.10
2018-08-21T08:36:21.942Z,7.07
2018-08-21T08:38:50.323Z,5.90
2018-08-21T08:41:24.220Z,8.27
2018-08-21T08:43:52.783Z,6.80
2018-08-21T08:46:22.098Z,8.00
2018-08-21T08:48:58.714Z,9.23
2018-08-21T08:51:27.522Z,6.37
2018-08-21T08:53:56.401Z,5.80
2018-08-21T08:56:26.675Z,10.10
2018-08-21T08:58:55.142Z,5.40
2018-08-21T09:01:23.622Z,6.13
2018-08-21T09:03:52.322Z,6.50
2018-08-21T09:06:27.878Z,5.87
2018-08-21T09:08:56.350Z,6.07
2018-08-21T09:11:25.206Z,7.27
2018-08-21T09:13:53.614Z,5.55
2018-08-21T09:16:22.350Z,8.23
2018-08-21T09:18:51.015Z,5.70
2018-08-21T09:21:19.139Z,5.60
2018-08-21T09:23:47.399Z,3.47
2018-08-21T09:26:24.109Z,3.10
2018-08-21T09:28:52.686Z,4.27
2018-08-21T09:31:21.206Z,3.67
2018-08-21T09:33:49.640Z,2.70
2018-08-21T09:36:17.979Z,3.33
2018-08-21T09:38:46.187Z,2.80
2018-08-21T09:41:15.718Z,2.70
2018-08-21T09:43:44.082Z,2.20
2018-08-21T09:46:12.379Z,3.20
2018-08-21T09:48:40.907Z,2.30
2018-08-21T09:51:09.959Z,2.00
2018-08-21T09:53:38.397Z,2.20
2018-08-21T09:56:06.807Z,1.80
2018-08-21T09:58:34.958Z,1.70
2018-08-21T10:01:08.346Z,2.33
2018-08-21T10:08:45.694Z,2.43
2018-08-21T10:11:13.947Z,3.43
2018-08-21T10:13:42.177Z,3.00
2018-08-21T10:16:10.611Z,2.20
2018-08-21T10:18:38.742Z,3.97
2018-08-21T10:21:11.260Z,1.40
2018-08-21T10:23:44.835Z,1.77
2018-08-21T10:26:38.234Z,2.00
2018-08-21T10:29:06.370Z,1.20
2018-08-21T10:31:37.961Z,1.87
2018-08-21T10:34:07.074Z,1.60
2018-08-21T10:36:35.958Z,2.50
2018-08-21T10:39:06.890Z,1.63
2018-08-21T10:41:35.370Z,2.00
2018-08-21T10:44:04.073Z,1.83
2018-08-21T10:46:32.171Z,2.93
2018-08-21T10:49:00.639Z,1.60
2018-08-21T10:51:28.746Z,2.87
2018-08-21T10:53:57.217Z,2.17
2018-08-21T10:56:25.633Z,1.57
2018-08-21T10:58:54.079Z,1.80
2018-08-21T11:01:22.533Z,1.73
2018-08-21T11:03:52.186Z,1.23
2018-08-21T11:06:20.834Z,13.53
2018-08-21T11:08:49.524Z,1.40
2018-08-21T11:11:18.006Z,3.03
2018-08-21T11:14:00.633Z,2.00
2018-08-21T11:16:30.394Z,3.23
2018-08-21T11:19:00.019Z,3.00
2018-08-21T11:21:28.778Z,1.57
2018-08-21T11:23:57.430Z,3.87
2018-08-21T11:26:26.107Z,2.50
2018-08-21T11:28:55.102Z,1.77
2018-08-21T11:31:23.901Z,1.87
2018-08-21T11:33:52.379Z,2.50
2018-08-21T11:36:21.159Z,1.90
2018-08-21T11:38:49.326Z,3.97
2018-08-21T11:41:18.140Z,1.63
2018-08-21T11:43:46.470Z,1.53
2018-08-21T11:46:14.917Z,2.70
2018-08-21T11:48:43.593Z,2.23
2018-08-21T11:51:12.267Z,1.77
2018-08-21T11:53:40.722Z,4.33
2018-08-21T11:56:09.194Z,1.37
2018-08-21T11:58:37.357Z,1.50
2018-08-21T12:01:05.501Z,1.73
2018-08-21T12:03:34.116Z,3.03
2018-08-21T12:06:02.629Z,3.10
2018-08-21T12:08:31.077Z,1.47
2018-08-21T12:10:59.222Z,1.87
2018-08-21T12:13:27.338Z,2.27
2018-08-21T12:15:55.481Z,5.53
2018-08-21T12:18:24.145Z,1.73
2018-08-21T12:20:52.661Z,2.40
2018-08-21T12:23:21.122Z,3.50
2018-08-21T12:25:49.254Z,1.97
2018-08-21T12:28:17.403Z,1.43
2018-08-21T12:30:45.887Z,1.73
2018-08-21T12:33:19.990Z,1.60
2018-08-21T12:35:48.126Z,1.80
2018-08-21T12:38:16.696Z,1.50
2018-08-21T12:40:45.350Z,1.50
2018-08-21T12:43:13.955Z,2.13
2018-08-21T12:45:54.414Z,1.50
2018-08-21T12:48:23.073Z,3.37
2018-08-21T12:50:51.529Z,2.10
2018-08-21T12:53:19.971Z,2.37
2018-08-21T12:55:48.558Z,2.30
2018-08-21T12:58:16.670Z,2.20
2018-08-21T13:00:45.115Z,3.43
2018-08-21T13:03:13.583Z,1.50
2018-08-21T13:05:42.050Z,1.80
2018-08-21T13:08:10.514Z,1.63
2018-08-21T13:10:39.051Z,1.10
2018-08-21T13:13:07.705Z,1.60
2018-08-21T13:15:35.853Z,2.70
2018-08-21T13:18:04.814Z,1.27
2018-08-21T13:20:33.291Z,2.30
2018-08-21T13:23:01.757Z,3.50
2018-08-21T13:25:30.321Z,2.23
2018-08-21T13:27:58.439Z,1.40
2018-08-21T13:30:26.919Z,1.10
2018-08-21T13:32:55.799Z,2.73
2018-08-21T13:35:23.930Z,1.53
2018-08-21T13:37:52.386Z,1.67
2018-08-21T13:40:20.850Z,4.10
2018-08-21T13:42:49.290Z,5.10
2018-08-21T13:45:17.415Z,2.90
2018-08-21T13:47:45.578Z,1.90
2018-08-21T13:50:13.918Z,1.17
2018-08-21T13:52:42.025Z,2.97
2018-08-21T13:55:10.696Z,1.40
2018-08-21T13:57:39.171Z,0.90
2018-08-21T14:00:07.317Z,3.10
2018-08-21T14:02:35.824Z,2.60
2018-08-21T14:05:04.563Z,2.57
2018-08-21T14:07:42.446Z,2.27
2018-08-21T14:10:11.014Z,1.87
2018-08-21T14:12:39.914Z,2.23
2018-08-21T14:15:11.302Z,1.63
2018-08-21T14:17:39.602Z,2.33
2018-08-21T14:20:08.425Z,2.03
2018-08-21T14:22:36.942Z,1.90
2018-08-21T14:25:05.430Z,1.47
2018-08-21T14:27:33.862Z,1.03
2018-08-21T14:30:02.553Z,1.10
2018-08-21T14:32:31.544Z,1.33
2018-08-21T14:35:00.936Z,1.57
2018-08-21T14:37:29.569Z,1.20
2018-08-21T14:39:59.208Z,1.10
2018-08-21T14:42:32.831Z,1.30
2018-08-21T14:45:02.374Z,1.97
2018-08-21T14:47:31.373Z,1.53
2018-08-21T14:50:00.067Z,2.30
2018-08-21T14:52:28.700Z,1.87
2018-08-21T14:54:57.579Z,1.83
2018-08-21T14:57:32.807Z,4.57
2018-08-21T15:00:01.732Z,1.73
2018-08-21T15:02:37.937Z,1.03
2018-08-21T15:05:07.334Z,1.63
2018-08-21T15:07:36.762Z,2.60
2018-08-21T15:10:05.122Z,1.30
2018-08-21T15:12:33.747Z,2.10
2018-08-21T15:15:02.049Z,2.70
2018-08-21T15:17:30.591Z,1.07
2018-08-21T15:19:59.263Z,2.50
2018-08-21T15:22:27.856Z,0.90
2018-08-21T15:24:56.709Z,1.33
2018-08-21T15:27:25.975Z,1.23
2018-08-21T15:29:54.078Z,0.87
2018-08-21T15:32:22.621Z,1.13
2018-08-21T15:34:51.074Z,2.80
2018-08-21T15:37:19.201Z,0.90
2018-08-21T15:39:47.463Z,0.80
2018-08-21T15:42:15.627Z,1.20
2018-08-21T15:44:43.734Z,1.33
2018-08-21T15:47:12.174Z,1.33
2018-08-21T15:49:40.300Z,1.00
2018-08-21T15:52:08.954Z,3.83
2018-08-21T15:54:37.413Z,1.00
2018-08-21T15:57:06.066Z,1.50
2018-08-21T15:59:34.514Z,0.87
2018-08-21T16:02:02.993Z,1.53
2018-08-21T16:04:31.506Z,2.17
2018-08-21T16:06:59.639Z,1.10
2018-08-21T16:09:28.097Z,0.90
2018-08-21T16:11:56.736Z,1.27
2018-08-21T16:14:25.385Z,1.60
2018-08-21T16:16:53.830Z,1.67
2018-08-21T16:19:22.577Z,1.00
2018-08-21T16:21:51.013Z,1.27
2018-08-21T16:24:19.454Z,1.07
2018-08-21T16:26:47.578Z,1.60
2018-08-21T16:29:16.014Z,1.90
2018-08-21T16:31:44.657Z,1.03
2018-08-21T16:34:13.087Z,1.70
2018-08-21T16:36:41.527Z,1.27
2018-08-21T16:39:12.030Z,1.30
2018-08-21T16:41:40.618Z,1.67
2018-08-21T16:44:09.411Z,5.00
2018-08-21T16:46:38.044Z,0.90
2018-08-21T16:49:06.882Z,3.23
2018-08-21T16:51:35.448Z,1.20
2018-08-21T16:54:04.308Z,1.43
2018-08-21T16:56:32.738Z,1.27
2018-08-21T16:59:01.178Z,1.33
2018-08-21T17:01:29.654Z,1.20
2018-08-21T17:03:57.758Z,1.40
2018-08-21T17:06:25.861Z,1.53
2018-08-21T17:08:54.305Z,1.47
2018-08-21T17:11:22.761Z,2.00
2018-08-21T17:13:51.445Z,2.57
2018-08-21T17:16:20.148Z,2.27
2018-08-21T17:18:48.293Z,1.00
2018-08-21T17:21:16.717Z,1.60
2018-08-21T17:23:45.236Z,2.13
2018-08-21T17:26:13.666Z,1.60
2018-08-21T17:28:42.101Z,1.30
2018-08-21T17:31:10.543Z,3.20
2018-08-21T17:33:39.005Z,1.77
2018-08-21T17:36:07.437Z,1.63
2018-08-21T17:38:35.549Z,2.50
2018-08-21T17:41:03.755Z,1.80
2018-08-21T17:43:32.202Z,8.37
2018-08-21T17:46:00.663Z,4.20
2018-08-21T17:48:28.893Z,2.13
2018-08-21T17:50:57.537Z,4.17
2018-08-21T17:53:25.672Z,1.60
2018-08-21T17:55:54.110Z,1.37
2018-08-21T17:58:22.757Z,2.30
2018-08-21T18:00:51.205Z,1.73
2018-08-21T18:03:19.648Z,1.80
2018-08-21T18:05:48.295Z,2.50
2018-08-21T18:08:17.029Z,1.70
2018-08-21T18:10:45.156Z,2.33
2018-08-21T18:13:13.607Z,1.87
2018-08-21T18:15:42.173Z,1.83
2018-08-21T18:18:10.722Z,1.97
2018-08-21T18:20:39.159Z,1.70
2018-08-21T18:23:07.633Z,1.57
2018-08-21T18:25:36.174Z,6.10
2018-08-21T18:28:04.298Z,1.87
2018-08-21T18:30:32.742Z,2.50
2018-08-21T18:33:00.870Z,1.83
2018-08-21T18:35:29.315Z,2.00
2018-08-21T18:37:57.958Z,1.90
2018-08-21T18:40:26.621Z,1.77
2018-08-21T18:42:55.062Z,2.30
2018-08-21T18:45:23.513Z,3.30
2018-08-21T18:47:51.948Z,1.73
2018-08-21T18:50:20.330Z,4.90
2018-08-21T18:52:48.926Z,3.50
2018-08-21T18:55:17.034Z,1.70
2018-08-21T18:57:45.390Z,2.63
2018-08-21T19:00:19.349Z,4.23
2018-08-21T19:02:47.821Z,2.73
2018-08-21T19:05:15.994Z,4.90
2018-08-21T19:07:44.363Z,5.93
2018-08-21T19:10:13.026Z,5.97
2018-08-21T19:12:41.154Z,9.00
2018-08-21T19:15:09.609Z,8.03
2018-08-21T19:17:38.073Z,8.27
2018-08-21T19:20:06.658Z,7.10
2018-08-21T19:22:34.766Z,2.80
2018-08-21T19:25:03.220Z,3.17
2018-08-21T19:27:31.843Z,3.00
2018-08-21T19:29:59.949Z,2.53
2018-08-21T19:32:28.077Z,2.67
2018-08-21T19:34:56.725Z,2.80
2018-08-21T19:37:25.165Z,2.53
2018-08-21T19:39:53.665Z,2.60
2018-08-21T19:42:22.128Z,2.60
2018-08-21T19:44:50.271Z,2.77
2018-08-21T19:47:18.719Z,2.70
2018-08-21T19:49:47.349Z,2.50
2018-08-21T19:52:15.806Z,2.30
2018-08-21T19:54:44.121Z,2.73
2018-08-21T19:57:12.229Z,8.50
2018-08-21T19:59:40.362Z,2.63
2018-08-21T20:02:08.853Z,2.67
2018-08-21T20:04:37.297Z,3.67
2018-08-21T20:07:05.822Z,2.80
2018-08-21T20:09:34.275Z,2.67
2018-08-21T20:12:02.388Z,4.20
2018-08-21T20:14:31.022Z,2.67
2018-08-21T20:16:59.137Z,2.97
2018-08-21T20:19:27.602Z,3.73
2018-08-21T20:21:56.042Z,3.00
2018-08-21T20:24:24.142Z,3.20
2018-08-21T20:26:52.258Z,2.53
2018-08-21T20:29:20.361Z,5.10
2018-08-21T20:31:48.814Z,3.00
2018-08-21T20:34:17.106Z,2.77
2018-08-21T20:36:45.607Z,3.70
2018-08-21T20:39:17.757Z,2.67
2018-08-21T20:41:46.237Z,3.73
2018-08-21T20:44:14.658Z,3.20
2018-08-21T20:46:42.789Z,2.90
2018-08-21T20:49:11.249Z,2.97
2018-08-21T20:51:39.695Z,2.60
2018-08-21T20:54:08.361Z,3.13
2018-08-21T20:56:36.489Z,2.70
2018-08-21T20:59:04.582Z,2.73
2018-08-21T21:01:32.940Z,2.57
2018-08-21T21:04:01.057Z,3.10
2018-08-21T21:06:29.509Z,2.70
2018-08-21T21:08:57.734Z,3.13
2018-08-21T21:11:26.440Z,3.13
2018-08-21T21:14:06.109Z,5.17
2018-08-21T21:16:45.675Z,3.00
2018-08-21T21:19:25.157Z,3.77
2018-08-21T21:22:04.793Z,3.37
2018-08-21T21:24:37.416Z,3.00
2018-08-21T21:27:06.028Z,3.93
2018-08-21T21:29:34.122Z,3.80
2018-08-21T21:32:02.564Z,5.50
2018-08-21T21:34:30.898Z,3.60
2018-08-21T21:36:59.022Z,4.07
2018-08-21T21:39:27.182Z,4.23
2018-08-21T21:41:55.636Z,4.27
2018-08-21T21:44:24.087Z,3.50
2018-08-21T21:46:52.538Z,3.47
2018-08-21T21:49:21.010Z,3.50
2018-08-21T21:51:49.441Z,3.13
2018-08-21T21:54:17.896Z,3.90
2018-08-21T21:56:46.481Z,4.13
2018-08-21T21:59:14.590Z,3.20
2018-08-21T22:01:43.077Z,4.30
2018-08-21T22:04:11.717Z,3.07
2018-08-21T22:06:40.166Z,3.50
2018-08-21T22:09:09.515Z,3.70
2018-08-21T22:11:38.273Z,4.40
2018-08-21T22:14:06.889Z,3.20
2018-08-21T22:16:35.154Z,3.60
2018-08-21T22:19:03.242Z,3.40
2018-08-21T22:21:31.551Z,4.17
2018-08-21T22:23:59.680Z,3.53
2018-08-21T22:26:27.823Z,3.30
2018-08-21T22:28:55.934Z,2.83
2018-08-21T22:31:24.278Z,4.07
2018-08-21T22:33:52.647Z,4.67
2018-08-21T22:36:21.101Z,3.60
2018-08-21T22:38:49.229Z,3.10
2018-08-21T22:41:17.340Z,3.33
2018-08-21T22:43:47.070Z,3.80
2018-08-21T22:46:15.182Z,3.23
2018-08-21T22:48:43.359Z,2.97
2018-08-21T22:51:11.451Z,3.30
2018-08-21T22:53:39.577Z,3.60
2018-08-21T22:56:07.678Z,3.40
2018-08-21T22:58:36.113Z,3.30
2018-08-21T23:01:04.221Z,5.23
2018-08-21T23:03:32.881Z,3.23
2018-08-21T23:06:01.342Z,3.57
2018-08-21T23:08:29.524Z,3.70
2018-08-21T23:10:57.653Z,3.27
2018-08-21T23:13:26.110Z,4.77
2018-08-21T23:15:54.652Z,5.17
2018-08-21T23:18:22.880Z,3.73
2018-08-21T23:20:51.024Z,3.70
2018-08-21T23:23:19.460Z,3.60
2018-08-21T23:25:47.910Z,4.03
2018-08-21T23:28:16.372Z,4.77
2018-08-21T23:30:44.803Z,3.60
2018-08-21T23:33:13.322Z,5.40
2018-08-21T23:35:41.434Z,3.97
2018-08-21T23:38:09.542Z,5.13
2018-08-21T23:40:37.641Z,3.83
2018-08-21T23:43:06.466Z,3.80
2018-08-21T23:45:34.593Z,4.23
2018-08-21T23:48:02.711Z,4.10
2018-08-21T23:50:30.830Z,4.83
2018-08-21T23:52:59.293Z,4.53
2018-08-21T23:55:27.734Z,5.10
2018-08-21T23:57:56.365Z,3.97
